首页
METAR-TAF:

METAR-TAF

机场 :

Dodge City, 堪薩斯州, 美国

纬度: 37-46-22N, 经度: 099-58-11W, 海拔: 790米

当前天气观测

该预报发布于1小时和1分钟前的23:52 UTC
风速5节,风向西转西南
温度 10°C
湿度 37%
气压 1017 hPa
能見度: 16.1公里
天空无云

METAR: KDDC 172352Z AUTO 25005KT 10SM CLR 10/M04 A3002 RMK AO2 SLP164 T01001039 10150 20089 56009 $

时间: 18:53 (00:53 UTC)

预报

该预报发布于1小时和19分钟前的23:34 UTC
预报有效从18日的 00点(UTC)到 18日的 24点(UTC)
风速10节,风向西转西南
能見度: 10公里
少量云层高于25000英尺
从 18日的 1600点(UTC)
风速20节,风向北转西北,有时为30节阵风
能見度: 10公里
少量云层高于25000英尺

TAF: KDDC 172334Z 1800/1824 25010KT P6SM FEW250 FM181600 34020G30KT P6SM FEW250

超过4000个机场的气象观测和天气预报(METAR&TAF报告)。

可查询的气象台以黄色和红色小点在地图上表示。

将鼠标移到小点上方,可查看气象台名称。

然后点击查看天气观测和预报。

如需切换地图:点击带黑十字的绿色按钮放大地图;点击带横线的绿色按钮缩小地图;或者点击绿色箭头查看邻近地区的地图。


METAR-TAF: